createdAt,value
2023-02-17T00:01:28.750Z,1.50
2023-02-17T00:04:37.322Z,1.56
2023-02-17T00:07:49.269Z,1.39
2023-02-17T00:11:00.069Z,1.35
2023-02-17T00:14:08.544Z,1.53
2023-02-17T00:17:17.593Z,1.86
2023-02-17T00:20:24.578Z,2.18
2023-02-17T00:23:47.400Z,2.44
2023-02-17T00:26:58.870Z,2.61
2023-02-17T00:30:06.196Z,2.68
2023-02-17T00:33:14.319Z,2.77
2023-02-17T00:36:23.255Z,2.80
2023-02-17T00:39:28.768Z,2.78
2023-02-17T00:42:35.897Z,2.83
2023-02-17T00:45:45.071Z,3.10
2023-02-17T00:48:57.675Z,3.16
2023-02-17T00:52:05.431Z,3.17
2023-02-17T00:55:13.319Z,3.13
2023-02-17T00:58:24.682Z,3.14
2023-02-17T01:01:34.122Z,3.14
2023-02-17T01:04:43.662Z,3.22
2023-02-17T01:07:54.712Z,3.18
2023-02-17T01:11:05.134Z,3.15
2023-02-17T01:14:19.554Z,3.09
2023-02-17T01:17:26.419Z,3.06
2023-02-17T01:20:39.680Z,3.09
2023-02-17T01:23:53.044Z,3.01
2023-02-17T01:27:03.730Z,3.02
2023-02-17T01:30:12.444Z,2.99
2023-02-17T01:33:24.774Z,3.10
2023-02-17T01:36:34.126Z,3.11
2023-02-17T01:39:42.353Z,3.28
2023-02-17T01:42:54.458Z,3.17
2023-02-17T01:46:04.556Z,3.16
2023-02-17T01:49:14.589Z,3.06
2023-02-17T01:52:24.819Z,2.97
2023-02-17T01:55:34.585Z,2.97
2023-02-17T01:58:54.811Z,2.93
2023-02-17T02:02:04.100Z,2.89
2023-02-17T02:05:14.849Z,2.83
2023-02-17T02:08:24.518Z,2.89
2023-02-17T02:11:33.115Z,2.85
2023-02-17T02:14:40.422Z,2.81
2023-02-17T02:18:07.710Z,2.71
2023-02-17T02:21:50.156Z,2.50
2023-02-17T02:25:17.351Z,2.48
2023-02-17T02:28:24.789Z,2.56
2023-02-17T02:31:44.743Z,2.40
2023-02-17T02:35:04.930Z,2.31
2023-02-17T02:38:15.963Z,2.36
2023-02-17T02:41:26.506Z,2.28
2023-02-17T02:44:33.621Z,2.07
2023-02-17T02:47:44.062Z,1.93
2023-02-17T02:51:04.188Z,1.82
2023-02-17T02:54:17.806Z,1.74
2023-02-17T02:57:44.431Z,1.67
2023-02-17T03:00:58.195Z,1.64
2023-02-17T03:04:06.900Z,1.64
2023-02-17T03:07:22.613Z,1.59
2023-02-17T03:10:32.061Z,1.56
2023-02-17T03:13:46.057Z,1.55
2023-02-17T03:16:57.603Z,1.48
2023-02-17T03:20:05.483Z,1.45
2023-02-17T03:23:19.114Z,1.42
2023-02-17T03:26:27.351Z,1.60
2023-02-17T03:29:35.065Z,1.63
2023-02-17T03:32:45.078Z,2.04
2023-02-17T03:35:54.927Z,2.24
2023-02-17T03:39:03.963Z,2.33
2023-02-17T03:42:14.538Z,2.55
2023-02-17T03:45:22.790Z,2.55
2023-02-17T03:48:30.047Z,2.49
2023-02-17T03:51:36.627Z,2.64
2023-02-17T03:54:55.104Z,2.78
2023-02-17T03:58:02.180Z,3.04
2023-02-17T04:01:13.426Z,3.20
2023-02-17T04:04:24.522Z,3.19
2023-02-17T04:07:36.522Z,3.26
2023-02-17T04:10:48.325Z,3.39
2023-02-17T04:13:56.816Z,3.40
2023-02-17T04:17:05.186Z,3.39
2023-02-17T04:20:12.232Z,3.37
2023-02-17T04:23:19.915Z,3.27
2023-02-17T04:26:27.697Z,3.26
2023-02-17T04:29:38.383Z,3.30
2023-02-17T04:32:47.664Z,3.35
2023-02-17T04:36:00.566Z,3.42
2023-02-17T04:39:07.956Z,3.46
2023-02-17T04:42:15.657Z,3.45
2023-02-17T04:45:26.361Z,3.47
2023-02-17T04:48:32.888Z,3.27
2023-02-17T04:51:39.512Z,3.17
2023-02-17T04:54:48.800Z,2.98
2023-02-17T04:57:57.499Z,2.95
2023-02-17T05:01:04.730Z,2.98
2023-02-17T05:04:14.737Z,3.05
2023-02-17T05:07:23.886Z,3.10
2023-02-17T05:10:34.608Z,2.98
2023-02-17T05:13:42.957Z,2.92
2023-02-17T05:16:51.979Z,2.96
2023-02-17T05:19:58.970Z,3.02
2023-02-17T05:23:07.329Z,2.94
2023-02-17T05:26:17.703Z,2.92
2023-02-17T05:29:25.370Z,2.83
2023-02-17T05:32:34.371Z,2.85
2023-02-17T05:35:44.341Z,2.86
2023-02-17T05:38:54.257Z,2.86
2023-02-17T05:42:00.009Z,2.97
2023-02-17T05:45:06.774Z,2.98
2023-02-17T05:48:17.603Z,3.02
2023-02-17T05:51:22.916Z,3.09
2023-02-17T05:54:27.782Z,3.07
2023-02-17T05:57:33.135Z,3.14
2023-02-17T06:00:37.842Z,3.20
2023-02-17T06:03:41.941Z,3.27
2023-02-17T06:06:45.669Z,3.30
2023-02-17T06:09:49.976Z,3.37
2023-02-17T06:12:54.496Z,3.44
2023-02-17T06:15:58.699Z,3.47
2023-02-17T06:19:03.164Z,3.52
2023-02-17T06:22:08.298Z,3.61
2023-02-17T06:25:12.559Z,3.68
2023-02-17T06:28:18.665Z,3.71
2023-02-17T06:31:23.417Z,3.79
2023-02-17T06:34:31.374Z,3.79
2023-02-17T06:37:36.019Z,3.82
2023-02-17T06:40:41.033Z,3.83
2023-02-17T06:43:45.599Z,3.95
2023-02-17T06:46:50.725Z,3.98
2023-02-17T06:49:56.199Z,4.11
2023-02-17T06:53:00.844Z,4.26
2023-02-17T06:56:05.061Z,4.36
2023-02-17T06:59:11.053Z,4.44
2023-02-17T07:02:14.844Z,4.65
2023-02-17T07:05:18.463Z,4.71
2023-02-17T07:08:22.671Z,4.76
2023-02-17T07:11:31.737Z,4.74
2023-02-17T07:14:36.704Z,4.82
2023-02-17T07:17:40.483Z,4.75
2023-02-17T07:20:44.031Z,4.83
2023-02-17T07:23:48.919Z,4.95
2023-02-17T07:26:54.070Z,4.78
2023-02-17T07:29:58.625Z,4.80
2023-02-17T07:33:01.996Z,4.84
2023-02-17T07:36:09.349Z,4.80
2023-02-17T07:39:12.954Z,4.86
2023-02-17T07:42:17.187Z,4.94
2023-02-17T07:45:23.552Z,5.06
2023-02-17T07:48:27.771Z,5.15
2023-02-17T07:51:31.371Z,5.17
2023-02-17T07:54:35.876Z,5.52
2023-02-17T07:57:39.778Z,5.88
2023-02-17T08:00:45.146Z,6.17
2023-02-17T08:03:50.277Z,6.25
2023-02-17T08:06:57.250Z,6.62
2023-02-17T08:10:20.781Z,6.87
2023-02-17T08:13:26.081Z,7.09
2023-02-17T08:16:30.444Z,7.38
2023-02-17T08:19:47.363Z,7.89
2023-02-17T08:22:53.514Z,8.44
2023-02-17T08:25:58.542Z,10.74
2023-02-17T08:29:03.988Z,12.72
2023-02-17T08:32:08.319Z,13.89
2023-02-17T08:35:14.536Z,13.63
2023-02-17T08:38:19.006Z,14.86
2023-02-17T08:41:34.748Z,13.94
2023-02-17T08:44:38.771Z,13.68
2023-02-17T08:47:43.526Z,12.16
2023-02-17T08:50:47.958Z,11.66
2023-02-17T08:53:57.478Z,11.12
2023-02-17T08:57:03.988Z,10.73
2023-02-17T09:00:08.355Z,11.13
2023-02-17T09:03:12.072Z,11.13
2023-02-17T09:06:17.161Z,10.94
2023-02-17T09:09:23.123Z,10.98
2023-02-17T09:12:27.422Z,11.14
2023-02-17T09:15:31.995Z,11.47
2023-02-17T09:18:37.603Z,11.52
2023-02-17T09:21:41.750Z,11.59
2023-02-17T09:24:47.256Z,11.49
2023-02-17T09:27:51.433Z,12.22
2023-02-17T09:30:56.102Z,12.53
2023-02-17T09:34:00.221Z,12.28
2023-02-17T09:37:10.834Z,12.52
2023-02-17T09:40:23.176Z,12.30
2023-02-17T09:43:30.294Z,11.73
2023-02-17T09:46:55.683Z,11.83
2023-02-17T09:50:13.022Z,11.87
2023-02-17T09:53:35.057Z,12.37
2023-02-17T09:56:41.678Z,12.65
2023-02-17T09:59:53.644Z,12.65
2023-02-17T10:03:05.583Z,12.71
2023-02-17T10:06:27.147Z,12.62
2023-02-17T10:09:37.620Z,12.32
2023-02-17T10:12:44.302Z,12.51
2023-02-17T10:15:50.697Z,11.87
2023-02-17T10:19:06.910Z,11.87
2023-02-17T10:22:16.857Z,11.82
2023-02-17T10:25:44.028Z,12.20
2023-02-17T10:28:53.305Z,12.32
2023-02-17T10:32:08.576Z,12.08
2023-02-17T10:35:20.912Z,11.97
2023-02-17T10:38:43.213Z,11.83
2023-02-17T10:41:50.383Z,12.00
2023-02-17T10:45:00.420Z,12.31
2023-02-17T10:48:07.944Z,11.76
2023-02-17T10:51:15.235Z,12.34
2023-02-17T10:54:38.648Z,12.33
2023-02-17T10:57:42.626Z,12.47
2023-02-17T11:00:47.606Z,11.48
2023-02-17T11:04:02.386Z,11.19
2023-02-17T11:07:12.304Z,11.13
2023-02-17T11:10:22.686Z,11.18
2023-02-17T11:13:43.808Z,11.11
2023-02-17T11:16:59.759Z,11.32
2023-02-17T11:20:28.168Z,11.70
2023-02-17T11:23:33.337Z,11.61
2023-02-17T11:26:37.746Z,11.50
2023-02-17T11:29:42.499Z,11.52
2023-02-17T11:32:46.721Z,11.38
2023-02-17T11:35:54.218Z,11.83
2023-02-17T11:39:01.064Z,11.88
2023-02-17T11:42:21.118Z,11.83
2023-02-17T11:45:26.606Z,12.06
2023-02-17T11:48:40.393Z,11.81
2023-02-17T11:52:09.302Z,11.98
2023-02-17T11:55:31.296Z,12.38
2023-02-17T11:58:44.263Z,12.34
2023-02-17T12:02:00.658Z,12.31
2023-02-17T12:05:11.279Z,12.24
2023-02-17T12:08:34.399Z,11.98
2023-02-17T12:11:59.512Z,11.91
2023-02-17T12:15:14.469Z,11.67
2023-02-17T12:18:30.654Z,11.51
2023-02-17T12:22:00.159Z,11.00
2023-02-17T12:25:09.987Z,10.95
2023-02-17T12:28:32.623Z,10.73
2023-02-17T12:31:49.500Z,10.77
2023-02-17T12:35:00.994Z,10.88
2023-02-17T12:38:11.909Z,10.67
2023-02-17T12:41:21.853Z,11.16
2023-02-17T12:44:29.388Z,11.76
2023-02-17T12:47:32.655Z,12.10
2023-02-17T12:50:43.306Z,12.42
2023-02-17T12:53:57.400Z,12.50
2023-02-17T12:57:10.344Z,12.53
2023-02-17T13:00:25.547Z,12.35
2023-02-17T13:03:34.109Z,12.59
2023-02-17T13:06:44.154Z,12.29
2023-02-17T13:09:49.133Z,12.28
2023-02-17T13:13:24.786Z,12.19
2023-02-17T13:16:28.867Z,12.09
2023-02-17T13:19:33.008Z,11.98
2023-02-17T13:22:39.941Z,11.86
2023-02-17T13:25:43.417Z,11.68
2023-02-17T13:28:49.633Z,11.15
2023-02-17T13:32:02.845Z,10.84
2023-02-17T13:35:28.846Z,10.84
2023-02-17T13:38:33.739Z,11.05
2023-02-17T13:41:49.220Z,11.36
2023-02-17T13:44:53.602Z,11.67
2023-02-17T13:47:59.038Z,11.93
2023-02-17T13:51:06.984Z,12.24
2023-02-17T13:54:12.920Z,12.13
2023-02-17T13:57:30.847Z,12.47
2023-02-17T14:00:37.921Z,12.51
2023-02-17T14:03:53.302Z,12.51
2023-02-17T14:07:02.056Z,12.48
2023-02-17T14:10:17.706Z,12.56
2023-02-17T14:13:24.483Z,12.56
2023-02-17T14:16:32.665Z,12.40
2023-02-17T14:19:47.804Z,12.43
2023-02-17T14:23:05.513Z,12.54
2023-02-17T14:26:16.084Z,12.49
2023-02-17T14:29:21.816Z,12.32
2023-02-17T14:32:26.558Z,11.95
2023-02-17T14:35:30.057Z,12.04
2023-02-17T14:38:37.738Z,11.82
2023-02-17T14:41:43.510Z,11.81
2023-02-17T14:44:48.249Z,11.66
2023-02-17T14:47:53.310Z,11.46
2023-02-17T14:50:58.218Z,11.49
2023-02-17T14:54:03.895Z,11.40
2023-02-17T14:57:08.479Z,11.20
2023-02-17T15:00:15.215Z,11.00
2023-02-17T15:03:19.917Z,11.09
2023-02-17T15:06:32.649Z,11.18
2023-02-17T15:09:38.479Z,11.18
2023-02-17T15:12:44.371Z,11.00
2023-02-17T15:15:50.978Z,10.85
2023-02-17T15:18:56.723Z,10.82
2023-02-17T15:22:02.179Z,10.78
2023-02-17T15:25:19.941Z,10.72
2023-02-17T15:28:29.092Z,10.68
2023-02-17T15:31:37.381Z,10.59
2023-02-17T15:34:43.942Z,10.63
2023-02-17T15:37:50.565Z,10.46
2023-02-17T15:40:59.402Z,10.39
2023-02-17T15:44:07.448Z,10.37
2023-02-17T15:47:17.166Z,10.37
2023-02-17T15:50:25.507Z,10.32
2023-02-17T15:53:33.367Z,10.27
2023-02-17T15:56:45.045Z,10.28
2023-02-17T15:59:50.469Z,10.34
2023-02-17T16:02:56.686Z,10.30
2023-02-17T16:06:02.921Z,10.15
2023-02-17T16:09:07.580Z,10.19
2023-02-17T16:12:17.755Z,10.20
2023-02-17T16:15:24.682Z,10.23
2023-02-17T16:18:28.808Z,10.37
2023-02-17T16:21:32.532Z,10.23
2023-02-17T16:24:37.389Z,10.11
2023-02-17T16:27:44.295Z,10.04
2023-02-17T16:30:51.123Z,9.99
2023-02-17T16:34:01.427Z,10.00
2023-02-17T16:37:12.789Z,9.90
2023-02-17T16:40:18.357Z,9.89
2023-02-17T16:43:23.578Z,9.90
2023-02-17T16:46:33.079Z,9.88
2023-02-17T16:49:40.824Z,9.85
2023-02-17T16:52:48.209Z,9.76
2023-02-17T16:55:53.822Z,9.90
2023-02-17T16:58:57.319Z,9.95
2023-02-17T17:02:01.985Z,9.88
2023-02-17T17:05:07.817Z,9.72
2023-02-17T17:08:16.985Z,9.59
2023-02-17T17:11:23.943Z,9.46
2023-02-17T17:14:29.403Z,9.32
2023-02-17T17:17:39.605Z,9.46
2023-02-17T17:20:45.023Z,9.54
2023-02-17T17:23:52.795Z,9.54
2023-02-17T17:26:58.388Z,9.63
2023-02-17T17:30:07.128Z,9.49
2023-02-17T17:33:17.015Z,9.30
2023-02-17T17:36:26.655Z,9.13
2023-02-17T17:39:30.516Z,8.99
2023-02-17T17:42:33.909Z,9.01
2023-02-17T17:45:41.719Z,8.91
2023-02-17T17:48:50.628Z,8.89
2023-02-17T17:52:00.103Z,8.90
2023-02-17T17:55:06.022Z,8.88
2023-02-17T17:58:12.706Z,8.92
2023-02-17T18:01:20.116Z,8.99
2023-02-17T18:04:25.697Z,8.88
2023-02-17T18:07:29.033Z,8.78
2023-02-17T18:10:33.972Z,8.74
2023-02-17T18:13:39.377Z,8.80
2023-02-17T18:16:49.733Z,8.79
2023-02-17T18:19:55.351Z,8.79
2023-02-17T18:22:59.030Z,8.85
2023-02-17T18:26:03.651Z,9.11
2023-02-17T18:29:12.325Z,9.33
2023-02-17T18:32:17.710Z,9.34
2023-02-17T18:35:21.867Z,9.27
2023-02-17T18:38:25.445Z,9.39
2023-02-17T18:41:32.108Z,9.42
2023-02-17T18:44:37.415Z,9.28
2023-02-17T18:47:41.568Z,8.89
2023-02-17T18:50:47.409Z,8.66
2023-02-17T18:53:53.799Z,8.63
2023-02-17T18:56:58.084Z,8.75
2023-02-17T19:00:05.790Z,8.64
2023-02-17T19:03:10.257Z,8.69
2023-02-17T19:06:16.890Z,8.74
2023-02-17T19:09:20.792Z,8.72
2023-02-17T19:12:25.780Z,8.69
2023-02-17T19:15:30.161Z,8.88
2023-02-17T19:18:36.316Z,8.88
2023-02-17T19:21:43.181Z,8.81
2023-02-17T19:24:53.351Z,8.66
2023-02-17T19:27:58.685Z,8.75
2023-02-17T19:31:05.891Z,8.68
2023-02-17T19:34:12.360Z,8.81
2023-02-17T19:37:17.421Z,8.93
2023-02-17T19:40:21.746Z,8.93
2023-02-17T19:43:27.928Z,8.96
2023-02-17T19:46:32.410Z,9.04
2023-02-17T19:49:40.015Z,9.15
2023-02-17T19:52:46.589Z,9.16
2023-02-17T19:55:50.862Z,9.13
2023-02-17T19:58:55.817Z,9.10
2023-02-17T20:02:03.647Z,9.08
2023-02-17T20:05:09.424Z,9.13
2023-02-17T20:08:14.239Z,9.10
2023-02-17T20:11:19.577Z,9.00
2023-02-17T20:14:23.013Z,8.95
2023-02-17T20:17:28.968Z,8.92
2023-02-17T20:20:35.675Z,8.85
2023-02-17T20:23:42.304Z,8.78
2023-02-17T20:26:47.986Z,8.68
2023-02-17T20:29:55.354Z,8.56
2023-02-17T20:32:59.678Z,8.46
2023-02-17T20:36:04.415Z,8.45
2023-02-17T20:39:10.025Z,8.38
2023-02-17T20:42:17.105Z,8.39
2023-02-17T20:45:21.978Z,8.49
2023-02-17T20:48:29.068Z,8.36
2023-02-17T20:51:34.971Z,8.60
2023-02-17T20:54:39.826Z,8.38
2023-02-17T20:57:44.833Z,8.38
2023-02-17T21:00:50.941Z,8.30
2023-02-17T21:03:55.672Z,8.58
2023-02-17T21:07:01.903Z,8.92
2023-02-17T21:10:08.663Z,9.04
2023-02-17T21:13:19.789Z,9.32
2023-02-17T21:16:26.917Z,9.64
2023-02-17T21:19:33.784Z,9.93
2023-02-17T21:22:43.127Z,10.14
2023-02-17T21:25:52.146Z,10.34
2023-02-17T21:28:58.837Z,10.55
2023-02-17T21:32:09.606Z,10.76
2023-02-17T21:35:17.835Z,11.15
2023-02-17T21:38:24.915Z,11.33
2023-02-17T21:41:33.654Z,11.58
2023-02-17T21:44:54.457Z,11.59
2023-02-17T21:48:00.658Z,11.56
2023-02-17T21:51:13.292Z,11.54
2023-02-17T21:54:20.668Z,11.49
2023-02-17T21:57:27.668Z,11.55
2023-02-17T22:00:34.894Z,11.54
2023-02-17T22:03:43.700Z,11.53
2023-02-17T22:06:51.184Z,11.50
2023-02-17T22:09:59.835Z,11.49
2023-02-17T22:13:07.924Z,11.49
2023-02-17T22:16:14.850Z,11.50
2023-02-17T22:19:23.294Z,11.52
2023-02-17T22:22:30.224Z,11.52
2023-02-17T22:25:37.923Z,11.55
2023-02-17T22:28:51.135Z,11.53
2023-02-17T22:32:00.445Z,11.56
2023-02-17T22:35:11.593Z,11.59
2023-02-17T22:38:20.438Z,11.73
2023-02-17T22:41:28.000Z,11.85
2023-02-17T22:44:40.472Z,11.82
2023-02-17T22:47:50.299Z,11.88
2023-02-17T22:50:59.198Z,11.96
2023-02-17T22:54:10.806Z,12.33
2023-02-17T22:57:17.359Z,12.37
2023-02-17T23:00:27.663Z,12.78
2023-02-17T23:03:34.383Z,13.08
2023-02-17T23:06:41.515Z,12.99
2023-02-17T23:09:50.410Z,13.05
2023-02-17T23:12:58.054Z,13.01
2023-02-17T23:16:02.985Z,12.92
2023-02-17T23:19:10.658Z,12.80
2023-02-17T23:22:20.873Z,12.82
2023-02-17T23:25:29.508Z,12.87
2023-02-17T23:28:36.641Z,12.88
2023-02-17T23:31:45.072Z,12.81
2023-02-17T23:34:54.128Z,12.73
2023-02-17T23:38:01.865Z,12.71
2023-02-17T23:41:12.192Z,12.76
2023-02-17T23:44:20.316Z,12.76
2023-02-17T23:47:25.744Z,12.71
2023-02-17T23:50:35.266Z,12.82
2023-02-17T23:53:44.529Z,12.73
2023-02-17T23:56:50.959Z,12.89
